EW6756 Weather Reports


Display with metric or nautical units.
time (UTC)temp
F
wind
direction
speed
MPH
gust
MPH
rain 1hr
in
rain 24hr
in
rain mn
in
humidity
%
barometer
mb
20240615184522 58 197 3.0 4.0 0.00 0.80 0.80 47 1006.3
20240615183521 58 152 2.0 2.0 0.00 0.80 0.80 47 1006.3
20240615182521 58 152 3.0 6.0 0.00 0.80 0.80 47 1006.0
20240615181521 58 220 4.0 6.0 0.00 0.80 0.80 47 1006.0
20240615180521 58 220 5.0 8.0 0.00 0.80 0.80 47 1006.2
20240615175521 58 197 6.0 8.0 0.00 0.80 0.80 47 1006.2
20240615173522 59 220 6.0 6.0 0.00 0.80 0.80 47 1005.9
20240615172521 59 265 6.0 5.0 0.00 0.80 0.80 47 1005.8
20240615171521 59 265 5.0 9.0 0.00 0.80 0.80 47 1005.8
20240615170521 59 265 4.0 6.0 0.00 0.80 0.80 46 1005.7
20240615165521 59 242 6.0 6.0 0.00 0.80 0.80 46 1005.7
20240615163521 60 310 5.0 9.0 0.00 0.80 0.80 46 1005.7
20240615162521 60 265 8.0 12.0 0.00 0.80 0.80 46 1005.4
20240615161521 60 310 5.0 9.0 0.06 0.80 0.80 46 1005.4
20240615160521 60 265 3.0 6.0 0.06 0.80 0.80 46 1005.4
20240615155521 60 265 5.0 5.0 0.06 0.80 0.80 46 1005.4
20240615154521 60 265 4.0 5.0 0.06 0.80 0.80 46 1005.2
20240615153521 60 220 7.0 3.0 0.06 0.80 0.80 46 1005.2
20240615152521 60 355 8.0 11.0 0.06 0.80 0.80 46 1004.7
20240615151521 61 242 8.0 6.0 0.00 0.74 0.74 46 1004.7